Time;durP1;ratioP1;P1;durP2;ratioP2;P2;SDS_P1;SDS_P2;PMS_P1;PMS_P2;Temp;Humidity;BMP_temperature;BMP_pressure;BME280_temperature;BME280_humidity;BME280_pressure;Samples;Min_cycle;Max_cycle;Signal;HPM_P1;HPM_P2
2022/12/04 03:22:12;;;;;;;13.68;6.85;;;;;;;4.29;88.04;103364.41;1801680;78;26501;-49
2022/12/04 03:24:44;;;;;;;12.93;6.17;;;;;;;5.26;80.76;103366.06;1756287;80;21517;-50
2022/12/04 03:27:38;;;;;;;13.05;7.60;;;;;;;5.54;78.63;103374.14;1751738;80;21461;-50
2022/12/04 03:30:09;;;;;;;12.13;6.40;;;;;;;5.67;77.74;103369.91;1765805;80;21121;-49
2022/12/04 03:33:05;;;;;;;15.68;6.87;;;;;;;5.76;77.10;103368.99;1763534;80;21048;-49
2022/12/04 03:35:45;;;;;;;11.68;6.85;;;;;;;5.83;76.67;103381.34;1753313;80;21042;-49
2022/12/04 03:38:30;;;;;;;15.28;6.17;;;;;;;5.89;76.35;103376.45;1752074;80;21053;-49
2022/12/04 03:41:09;;;;;;;11.20;5.70;;;;;;;5.98;76.13;103376.78;1749438;80;21072;-50
2022/12/04 03:44:09;;;;;;;10.32;5.30;;;;;;;6.08;75.65;103378.89;1755678;80;21622;-50
2022/12/04 03:46:55;;;;;;;15.80;6.15;;;;;;;6.15;74.84;103380.02;1754775;80;21058;-50
2022/12/04 03:49:43;;;;;;;8.23;5.42;;;;;;;6.20;74.43;103368.16;1750618;80;21049;-50
2022/12/04 03:52:18;;;;;;;11.70;5.53;;;;;;;6.24;74.10;103376.09;1767011;80;21003;-49
2022/12/04 03:54:52;;;;;;;13.38;6.15;;;;;;;6.29;73.63;103374.54;1747023;80;21347;-49
2022/12/04 03:57:27;;;;;;;8.70;5.58;;;;;;;6.34;73.42;103373.02;1752664;80;21046;-49
2022/12/04 04:00:08;;;;;;;8.68;5.03;;;;;;;6.38;73.07;103378.77;1753879;80;21116;-49
2022/12/04 04:02:49;;;;;;;8.78;5.37;;;;;;;6.40;72.71;103375.83;1749039;80;21069;-50
2022/12/04 04:05:16;;;;;;;7.23;5.10;;;;;;;6.44;72.33;103372.53;1647105;83;21042;-50
2022/12/04 04:07:51;;;;;;;7.72;5.03;;;;;;;6.46;72.02;103378.64;1674283;83;21860;-50
2022/12/04 04:10:22;;;;;;;7.58;4.45;;;;;;;6.46;71.78;103374.76;1606483;87;21082;-49
2022/12/04 04:24:15;;;;;;;6.97;4.95;;;;;;;6.50;71.12;103380.51;1609049;87;21597;-50
2022/12/04 04:26:45;;;;;;;10.65;5.33;;;;;;;6.52;71.06;103376.27;1624342;87;21241;-49
2022/12/04 04:29:12;;;;;;;8.43;4.55;;;;;;;6.53;70.87;103381.89;1613036;87;21095;-50
2022/12/04 04:32:05;;;;;;;8.90;5.37;;;;;;;6.55;70.63;103388.44;1618541;87;21596;-49
2022/12/04 04:34:40;;;;;;;6.87;4.75;;;;;;;6.55;70.43;103383.27;1610331;87;21086;-49
2022/12/04 04:37:31;;;;;;;10.55;5.10;;;;;;;6.53;70.27;103383.19;1623582;87;21076;-49
2022/12/04 04:40:15;;;;;;;8.05;4.67;;;;;;;6.52;70.16;103387.91;1618193;87;21158;-50
2022/12/04 04:43:03;;;;;;;8.35;4.78;;;;;;;6.52;69.94;103386.63;1608107;87;21605;-50
2022/12/04 04:45:47;;;;;;;7.83;4.75;;;;;;;6.50;69.87;103386.98;1620458;87;21116;-50
2022/12/04 04:48:33;;;;;;;9.80;5.85;;;;;;;6.51;69.93;103391.31;1594195;88;21205;-50
2022/12/04 04:51:00;;;;;;;7.10;4.60;;;;;;;6.50;69.95;103385.69;1592900;87;21600;-49
2022/12/04 04:53:46;;;;;;;14.65;6.08;;;;;;;6.49;69.93;103394.25;1597448;87;21116;-49
2022/12/04 04:56:12;;;;;;;7.53;4.78;;;;;;;6.51;69.89;103395.19;1564737;89;21111;-49
2022/12/04 04:58:41;;;;;;;9.95;5.08;;;;;;;6.50;69.66;103401.20;1553641;91;21146;-49
2022/12/04 05:01:17;;;;;;;9.75;4.75;;;;;;;6.49;69.45;103402.02;1572476;91;21141;-49
2022/12/04 05:03:44;;;;;;;11.33;4.97;;;;;;;6.38;69.76;103402.05;1510412;93;21139;-49
2022/12/04 05:06:10;;;;;;;8.88;4.80;;;;;;;6.37;69.97;103401.56;1524487;92;21160;-50
2022/12/04 05:08:37;;;;;;;11.12;5.53;;;;;;;6.40;69.71;103405.97;1537042;92;21077;-50
2022/12/04 05:11:04;;;;;;;7.72;4.37;;;;;;;6.34;69.92;103401.47;1530071;93;21116;-49
2022/12/04 05:13:31;;;;;;;6.03;4.40;;;;;;;6.35;69.97;103399.33;1532709;93;21136;-50
2022/12/04 05:16:05;;;;;;;6.08;4.25;;;;;;;6.35;69.98;103405.80;1528498;91;21155;-49
2022/12/04 05:18:33;;;;;;;12.23;4.55;;;;;;;6.36;69.94;103407.58;1533416;93;21585;-50
2022/12/04 05:21:07;;;;;;;5.37;3.98;;;;;;;6.35;69.94;103408.38;1526336;93;21128;-50
2022/12/04 05:23:34;;;;;;;10.05;4.40;;;;;;;6.36;70.06;103417.92;1509201;93;21113;-49
2022/12/04 05:26:02;;;;;;;12.82;4.83;;;;;;;6.37;70.10;103420.95;1482258;96;21137;-50
2022/12/04 05:28:29;;;;;;;18.42;5.95;;;;;;;6.38;70.16;103412.39;1474047;95;21150;-49
2022/12/04 05:30:57;;;;;;;10.05;4.87;;;;;;;6.40;70.11;103412.03;1479717;96;21158;-50
2022/12/04 05:33:24;;;;;;;7.67;4.53;;;;;;;6.42;69.92;103410.80;1527649;93;21105;-49
2022/12/04 05:36:03;;;;;;;12.03;5.15;;;;;;;6.42;69.61;103415.56;1527062;93;21113;-50
2022/12/04 05:38:31;;;;;;;8.80;4.50;;;;;;;6.40;69.51;103417.21;1492584;95;21680;-49
2022/12/04 05:40:59;;;;;;;8.13;4.72;;;;;;;6.50;69.29;103419.72;1531507;91;21685;-50
2022/12/04 05:43:26;;;;;;;7.53;4.65;;;;;;;6.52;69.14;103420.25;1517302;93;21108;-52
2022/12/04 05:45:52;;;;;;;9.68;4.80;;;;;;;6.45;69.33;103418.24;1491887;95;21130;-50
2022/12/04 05:48:19;;;;;;;7.03;4.12;;;;;;;6.47;69.05;103416.59;1515981;93;21141;-50
2022/12/04 05:50:46;;;;;;;8.88;4.90;;;;;;;6.46;69.12;103413.55;1520340;92;21155;-50
2022/12/04 05:53:12;;;;;;;9.08;4.30;;;;;;;6.47;68.86;103423.06;1535310;92;21146;-50
2022/12/04 05:55:39;;;;;;;9.15;5.05;;;;;;;6.45;68.72;103423.41;1537948;92;21085;-50
2022/12/04 05:58:06;;;;;;;8.05;4.85;;;;;;;6.45;68.79;103436.34;1506086;93;21080;-50
2022/12/04 06:00:33;;;;;;;7.42;4.87;;;;;;;6.48;68.84;103433.00;1557541;89;21559;-49
2022/12/04 06:03:00;;;;;;;7.53;4.47;;;;;;;6.47;68.86;103426.94;1561027;90;21110;-49
2022/12/04 06:05:27;;;;;;;8.23;4.42;;;;;;;6.50;68.73;103442.59;1569020;89;21192;-50
2022/12/04 06:07:54;;;;;;;6.05;4.42;;;;;;;6.42;69.00;103441.42;1574048;89;21056;-49
2022/12/04 06:10:20;;;;;;;6.40;4.30;;;;;;;6.41;69.12;103442.63;1574763;89;21063;-50
2022/12/04 06:12:47;;;;;;;8.65;4.55;;;;;;;6.45;68.97;103440.23;1585484;89;21116;-49
2022/12/04 06:15:13;;;;;;;8.10;4.45;;;;;;;6.42;69.14;103449.19;1568871;89;21082;-50
2022/12/04 06:17:40;;;;;;;8.83;4.60;;;;;;;6.49;69.01;103458.06;1578971;89;21601;-49
2022/12/04 06:20:09;;;;;;;6.60;4.22;;;;;;;6.50;69.16;103449.05;1584280;89;21101;-50
2022/12/04 06:22:35;;;;;;;8.90;5.50;;;;;;;6.56;69.13;103442.81;1630779;86;21118;-49
2022/12/04 06:25:02;;;;;;;5.85;4.15;;;;;;;6.56;69.11;103442.81;1620655;86;21054;-49
2022/12/04 06:27:29;;;;;;;6.55;4.45;;;;;;;6.53;69.03;103451.73;1614486;87;21186;-50
2022/12/04 06:29:56;;;;;;;7.08;4.92;;;;;;;6.52;68.94;103453.87;1620331;86;21059;-49
2022/12/04 06:32:22;;;;;;;4.62;3.65;;;;;;;6.53;69.02;103454.33;1613206;87;21486;-50
2022/12/04 06:34:53;;;;;;;8.80;4.20;;;;;;;6.52;68.87;103456.46;1629504;84;21627;-49
2022/12/04 06:37:22;;;;;;;8.80;4.50;;;;;;;6.50;68.86;103459.41;1747214;80;21124;-50
2022/12/04 06:39:48;;;;;;;8.18;4.25;;;;;;;6.49;68.96;103462.80;1753758;80;21037;-49
2022/12/04 06:42:15;;;;;;;6.35;4.40;;;;;;;6.48;68.75;103467.52;1752765;80;21029;-50
2022/12/04 06:44:42;;;;;;;6.03;4.58;;;;;;;6.45;68.95;103464.80;1753790;80;20998;-49
2022/12/04 06:47:09;;;;;;;10.30;4.25;;;;;;;6.44;69.03;103456.98;1757980;80;21042;-50
2022/12/04 06:49:36;;;;;;;5.72;4.12;;;;;;;6.43;68.92;103456.10;1746574;81;21579;-50
2022/12/04 06:52:02;;;;;;;7.53;4.33;;;;;;;6.41;69.01;103460.34;1765865;80;21057;-49
2022/12/04 06:54:29;;;;;;;14.85;4.78;;;;;;;6.39;68.88;103456.81;1753001;80;21027;-49
2022/12/04 06:56:56;;;;;;;8.80;4.45;;;;;;;6.34;68.90;103463.53;1754111;81;21123;-50
2022/12/04 06:59:22;;;;;;;7.42;4.60;;;;;;;6.30;69.12;103456.48;1751691;81;21074;-49
2022/12/04 07:01:51;;;;;;;6.22;4.12;;;;;;;6.19;69.36;103455.17;1758255;80;21026;-50
2022/12/04 07:04:17;;;;;;;10.05;5.00;;;;;;;5.98;70.36;103456.91;1739843;80;21105;-50
2022/12/04 07:06:44;;;;;;;8.83;4.37;;;;;;;6.17;69.83;103452.94;1754876;81;21034;-49
2022/12/04 07:09:14;;;;;;;7.80;4.03;;;;;;;6.19;70.00;103451.30;1752846;81;20990;-49
2022/12/04 07:11:41;;;;;;;9.55;3.92;;;;;;;6.25;69.71;103455.41;1756693;80;21018;-50
2022/12/04 07:14:08;;;;;;;6.83;3.98;;;;;;;6.41;69.16;103449.98;1756314;80;21011;-49
2022/12/04 07:16:35;;;;;;;6.72;3.83;;;;;;;6.42;68.90;103458.64;1760205;80;21080;-50
2022/12/04 07:19:01;;;;;;;11.95;4.10;;;;;;;6.40;68.78;103458.59;1766747;80;21014;-49
2022/12/04 07:21:29;;;;;;;6.53;4.17;;;;;;;6.41;68.80;103457.75;1763912;80;21041;-49
2022/12/04 07:23:58;;;;;;;7.22;4.62;;;;;;;6.42;68.67;103467.69;1757416;80;21022;-49
2022/12/04 07:26:26;;;;;;;8.45;4.55;;;;;;;6.41;68.79;103462.92;1753862;80;21062;-49
2022/12/04 07:28:53;;;;;;;5.87;3.83;;;;;;;6.42;68.85;103469.88;1749886;80;21094;-49
2022/12/04 07:31:21;;;;;;;4.78;3.40;;;;;;;6.43;68.70;103469.03;1759411;80;21521;-50
2022/12/04 07:33:48;;;;;;;5.42;3.60;;;;;;;6.43;68.47;103467.73;1751308;80;21051;-49
2022/12/04 07:36:18;;;;;;;4.85;3.47;;;;;;;6.45;68.50;103466.09;1753514;80;21473;-49
2022/12/04 07:38:45;;;;;;;6.85;3.30;;;;;;;6.47;68.41;103467.03;1752338;80;21712;-49
2022/12/04 07:41:13;;;;;;;9.05;3.75;;;;;;;6.48;68.26;103468.81;1748245;81;21108;-49
2022/12/04 07:43:40;;;;;;;8.85;3.65;;;;;;;6.48;68.15;103462.34;1766477;80;20995;-49
2022/12/04 07:46:11;;;;;;;6.33;3.77;;;;;;;6.44;68.32;103465.64;1769611;80;21561;-49
2022/12/04 07:48:38;;;;;;;6.58;4.03;;;;;;;6.42;68.36;103467.28;1741774;81;21077;-50
2022/12/04 07:51:07;;;;;;;8.90;4.17;;;;;;;6.44;68.47;103468.22;1735336;82;21485;-49
2022/12/04 07:53:34;;;;;;;5.33;4.10;;;;;;;6.41;68.53;103463.32;1733438;81;21080;-49
2022/12/04 07:56:03;;;;;;;6.17;3.65;;;;;;;6.39;68.64;103472.33;1722104;81;21046;-49
2022/12/04 07:58:30;;;;;;;6.40;4.37;;;;;;;6.39;68.44;103469.73;1712158;82;21502;-49
2022/12/04 08:01:17;;;;;;;5.25;4.45;;;;;;;6.39;68.37;103478.79;1690375;84;21054;-50
2022/12/04 08:03:44;;;;;;;5.05;3.67;;;;;;;6.38;68.39;103478.34;1673734;84;21061;-49
2022/12/04 08:06:11;;;;;;;4.28;2.90;;;;;;;6.40;68.26;103484.45;1672500;85;21557;-49
2022/12/04 08:08:38;;;;;;;4.37;3.00;;;;;;;6.43;68.06;103484.95;1688096;84;21093;-49
2022/12/04 08:11:07;;;;;;;6.10;3.42;;;;;;;6.43;67.95;103479.38;1652070;86;21079;-50
2022/12/04 08:13:34;;;;;;;4.97;3.15;;;;;;;6.42;67.89;103482.80;1713842;83;21132;-49
2022/12/04 08:16:05;;;;;;;10.80;3.70;;;;;;;6.42;67.89;103481.52;1710425;83;21568;-49
2022/12/04 08:18:32;;;;;;;8.38;4.78;;;;;;;6.45;67.89;103485.92;1663374;86;21570;-49
2022/12/04 08:21:09;;;;;;;4.42;2.90;;;;;;;6.45;68.00;103488.08;1653524;86;21090;-49
2022/12/04 08:23:37;;;;;;;4.22;3.47;;;;;;;6.48;67.70;103485.62;1546366;92;21585;-49
2022/12/04 08:26:04;;;;;;;8.40;3.17;;;;;;;6.45;67.69;103484.20;1550431;92;21089;-50
2022/12/04 08:28:31;;;;;;;4.08;3.02;;;;;;;6.45;67.63;103491.95;1549664;92;21090;-50
2022/12/04 08:31:06;;;;;;;5.00;2.98;;;;;;;6.43;67.50;103484.55;1547733;92;21138;-49
2022/12/04 08:33:32;;;;;;;5.50;3.37;;;;;;;6.44;67.38;103486.33;1443501;98;21290;-49
2022/12/04 08:35:59;;;;;;;5.08;3.47;;;;;;;6.43;67.32;103481.97;1426274;99;21291;-50
2022/12/04 08:38:26;;;;;;;7.45;3.50;;;;;;;6.41;67.24;103478.44;1399487;101;21150;-50
2022/12/04 08:40:52;;;;;;;7.65;4.22;;;;;;;6.40;67.27;103481.86;1418309;101;21135;-50
2022/12/04 08:43:19;;;;;;;5.92;3.62;;;;;;;6.40;67.22;103485.75;1416841;100;21133;-49
2022/12/04 08:46:00;;;;;;;6.95;3.45;;;;;;;6.40;67.15;103481.86;1441965;98;21149;-49
2022/12/04 08:48:27;;;;;;;7.87;4.00;;;;;;;6.40;67.12;103481.86;1460225;96;21287;-49
2022/12/04 14:33:29;;;;;;;3.33;2.42;;;;;;;2.86;83.08;103438.06;1794257;79;26781;-58
2022/12/04 14:36:02;;;;;;;3.95;2.47;;;;;;;3.87;76.82;103432.00;1762358;80;21520;-58
2022/12/04 14:38:29;;;;;;;7.67;2.87;;;;;;;4.11;75.30;103439.20;1753261;80;20974;-58
2022/12/04 14:40:57;;;;;;;4.35;2.95;;;;;;;4.23;74.68;103436.30;1756423;80;21466;-58
2022/12/04 14:43:27;;;;;;;8.38;4.50;;;;;;;4.31;74.27;103440.11;1759179;80;21030;-58
2022/12/04 14:45:59;;;;;;;6.75;4.95;;;;;;;4.42;73.68;103443.19;1758675;80;21005;-58
2022/12/04 14:48:49;;;;;;;4.67;3.80;;;;;;;4.49;73.23;103441.38;1762268;80;21520;-58
2022/12/04 14:51:33;;;;;;;4.00;3.05;;;;;;;4.55;72.96;103445.53;1754507;80;21058;-58
2022/12/04 14:54:34;;;;;;;5.33;3.55;;;;;;;4.59;72.47;103440.58;1768211;80;21042;-58
2022/12/04 14:57:48;;;;;;;5.05;2.60;;;;;;;4.64;72.06;103433.92;1741545;80;21030;-58
2022/12/04 15:00:21;;;;;;;5.45;3.10;;;;;;;4.68;71.58;103433.23;1750184;81;21045;-59
2022/12/04 15:02:51;;;;;;;4.72;2.17;;;;;;;4.68;71.24;103435.81;1750532;81;21011;-59
2022/12/04 15:05:23;;;;;;;4.03;2.80;;;;;;;4.73;71.08;103436.92;1758892;80;21611;-59
2022/12/04 15:08:04;;;;;;;5.03;2.55;;;;;;;4.76;70.89;103446.06;1679378;83;21021;-59
2022/12/04 15:13:28;;;;;;;3.77;2.05;;;;;;;5.07;69.52;103440.98;1603038;88;21120;-59
2022/12/04 15:15:55;;;;;;;4.58;1.87;;;;;;;4.89;69.84;103434.20;1604741;88;21118;-58
2022/12/04 15:18:22;;;;;;;3.10;1.85;;;;;;;4.90;69.65;103435.09;1594263;89;21073;-59
2022/12/04 15:20:56;;;;;;;3.45;2.30;;;;;;;4.91;69.69;103435.14;1600846;88;21583;-59
2022/12/04 15:23:35;;;;;;;5.08;2.72;;;;;;;4.95;69.63;103425.83;1608863;88;21042;-58
2022/12/04 15:26:06;;;;;;;5.15;2.70;;;;;;;5.00;69.42;103436.36;1609693;88;21129;-59
2022/12/04 15:28:42;;;;;;;5.25;2.42;;;;;;;4.98;69.36;103432.83;1543906;92;21114;-58
2022/12/04 15:31:15;;;;;;;5.53;2.30;;;;;;;4.94;69.30;103437.88;1536453;92;21721;-59
2022/12/04 15:33:41;;;;;;;4.60;2.05;;;;;;;4.93;69.21;103433.51;1448380;97;21170;-59
2022/12/04 15:36:29;;;;;;;2.37;1.45;;;;;;;4.93;69.20;103431.33;1456094;97;21156;-60
2022/12/04 15:38:56;;;;;;;2.42;1.72;;;;;;;4.90;69.05;103430.78;1441701;97;21138;-60
2022/12/04 15:41:30;;;;;;;4.10;2.40;;;;;;;4.85;69.18;103421.98;1442946;97;21115;-59
2022/12/04 15:43:57;;;;;;;4.95;2.10;;;;;;;4.84;69.29;103415.04;1418194;99;21178;-59
2022/12/04 15:46:31;;;;;;;2.17;1.77;;;;;;;4.81;69.38;103416.21;1406058;99;21153;-59
2022/12/04 15:49:17;;;;;;;3.37;1.55;;;;;;;4.80;69.49;103422.17;1380394;102;21717;-59
2022/12/04 15:51:46;;;;;;;1.32;1.20;;;;;;;4.78;69.55;103422.51;1344112;106;21628;-59
2022/12/04 15:54:23;;;;;;;3.12;1.65;;;;;;;4.80;69.47;103423.45;1344371;105;21142;-59
2022/12/04 15:57:19;;;;;;;4.03;1.40;;;;;;;4.78;69.39;103418.64;1343806;105;21168;-59
2022/12/04 15:59:49;;;;;;;4.60;1.62;;;;;;;4.74;69.68;103425.77;1337841;105;21705;-59
2022/12/04 16:02:24;;;;;;;2.08;1.55;;;;;;;4.74;69.79;103418.03;1352711;105;21194;-59
2022/12/04 16:04:51;;;;;;;2.92;1.50;;;;;;;4.75;69.76;103422.39;1315939;108;21311;-59
2022/12/04 16:07:26;;;;;;;3.12;1.50;;;;;;;4.73;69.64;103420.55;1323814;107;21393;-59
2022/12/04 16:09:57;;;;;;;2.55;1.40;;;;;;;4.69;69.81;103420.84;1337135;107;21158;-59
2022/12/04 16:12:29;;;;;;;3.12;1.57;;;;;;;4.68;69.90;103417.77;1317795;107;21213;-59
2022/12/04 16:15:57;;;;;;;7.17;2.12;;;;;;;4.68;69.90;103417.77;1282422;110;21626;-59
2022/12/04 16:18:24;;;;;;;2.37;1.25;;;;;;;4.68;70.22;103410.03;1300537;108;21696;-59
2022/12/04 16:20:50;;;;;;;3.87;1.45;;;;;;;4.67;70.43;103418.59;1309570;108;21250;-59
2022/12/04 16:23:18;;;;;;;3.05;1.65;;;;;;;4.66;70.55;103420.68;1309113;108;21154;-59
2022/12/04 16:25:44;;;;;;;3.45;1.87;;;;;;;4.80;70.29;103414.43;1311951;107;21657;-59
2022/12/04 16:28:12;;;;;;;2.02;1.35;;;;;;;4.93;69.75;103409.41;1324157;105;21920;-59
2022/12/04 16:30:39;;;;;;;5.47;3.08;;;;;;;4.98;69.64;103408.31;1322185;107;21199;-59
2022/12/04 16:33:05;;;;;;;5.08;3.02;;;;;;;5.01;69.63;103418.35;1346019;104;21292;-59
2022/12/04 16:35:32;;;;;;;2.72;2.15;;;;;;;5.07;69.58;103407.43;1347015;105;21313;-59
2022/12/04 16:37:59;;;;;;;6.65;2.30;;;;;;;5.09;69.55;103423.86;1375873;103;21697;-59
2022/12/04 16:40:25;;;;;;;5.90;2.45;;;;;;;5.12;69.34;103408.48;1386600;101;21174;-59
2022/12/04 16:42:52;;;;;;;4.40;1.77;;;;;;;5.14;69.03;103413.31;1397317;100;21167;-59
2022/12/04 16:45:28;;;;;;;3.92;1.70;;;;;;;5.15;68.92;103411.22;1408408;99;21649;-59
2022/12/04 16:47:56;;;;;;;5.90;2.55;;;;;;;5.18;68.90;103404.48;1430868;98;21204;-59
2022/12/04 16:50:24;;;;;;;5.60;2.87;;;;;;;5.23;68.57;103418.88;1438361;96;21250;-59
2022/12/04 16:52:51;;;;;;;3.75;2.17;;;;;;;5.25;68.49;103419.82;1476270;95;21124;-59
2022/12/04 16:55:21;;;;;;;4.42;2.17;;;;;;;5.18;68.52;103421.66;1475733;95;21089;-59
2022/12/04 16:57:47;;;;;;;3.77;1.40;;;;;;;5.07;68.72;103430.66;1480792;95;21167;-59
2022/12/04 17:00:17;;;;;;;2.15;1.35;;;;;;;5.06;68.52;103432.34;1475778;96;21128;-59
2022/12/04 17:02:44;;;;;;;3.47;1.82;;;;;;;5.04;68.40;103427.93;1578257;88;21570;-59
2022/12/04 17:05:24;;;;;;;6.72;1.30;;;;;;;5.02;68.58;103431.74;1621155;86;21030;-59
2022/12/04 17:07:51;;;;;;;5.70;1.67;;;;;;;5.03;68.61;103431.34;1632240;85;21081;-59
2022/12/04 17:10:18;;;;;;;6.37;1.95;;;;;;;5.03;68.54;103436.50;1759159;80;20987;-59
2022/12/04 17:12:45;;;;;;;6.60;1.55;;;;;;;5.04;68.50;103435.67;1761596;80;21034;-59
2022/12/04 17:15:11;;;;;;;8.58;1.52;;;;;;;5.03;68.44;103436.50;1762847;80;21035;-59
2022/12/04 17:17:38;;;;;;;5.55;1.65;;;;;;;5.02;68.43;103434.72;1753562;80;21079;-59
2022/12/04 17:20:10;;;;;;;8.10;1.52;;;;;;;5.02;68.62;103428.27;1752667;80;21099;-59
2022/12/04 17:22:37;;;;;;;5.25;1.95;;;;;;;5.06;68.88;103436.22;1683691;83;21115;-59
2022/12/04 17:25:05;;;;;;;3.65;1.80;;;;;;;5.09;68.88;103429.02;1688506;83;21410;-59
2022/12/04 17:27:32;;;;;;;5.10;1.67;;;;;;;5.10;68.85;103423.03;1700622;83;21062;-60
2022/12/04 17:29:58;;;;;;;6.80;1.85;;;;;;;5.11;68.82;103419.65;1686706;83;21543;-59
2022/12/04 17:32:26;;;;;;;4.30;2.08;;;;;;;5.12;68.78;103417.52;1680103;83;21081;-59
2022/12/04 17:34:53;;;;;;;4.20;1.87;;;;;;;5.10;68.65;103421.73;1691307;83;21030;-59
2022/12/04 17:37:20;;;;;;;3.67;1.92;;;;;;;5.09;68.49;103424.72;1689471;83;21061;-60
2022/12/04 17:39:46;;;;;;;4.33;1.87;;;;;;;5.08;68.25;103430.72;1689580;83;21541;-59
2022/12/04 17:42:15;;;;;;;6.22;2.33;;;;;;;5.07;68.05;103422.91;1700615;83;21108;-59
2022/12/04 17:44:43;;;;;;;4.22;2.20;;;;;;;5.06;67.96;103434.04;1698109;83;21006;-59
2022/12/04 17:47:10;;;;;;;3.65;1.45;;;;;;;5.08;68.02;103432.41;1694298;83;21128;-60
2022/12/04 17:49:36;;;;;;;4.25;1.47;;;;;;;5.11;67.70;103440.30;1689673;83;21050;-59
2022/12/04 17:52:03;;;;;;;9.28;2.30;;;;;;;5.10;67.47;103435.53;1685389;83;21052;-59
2022/12/04 17:54:31;;;;;;;6.00;2.00;;;;;;;5.03;67.76;103431.34;1694221;83;21090;-59
2022/12/04 17:56:58;;;;;;;3.42;1.70;;;;;;;5.08;67.64;103425.55;1695254;83;21118;-59
2022/12/04 17:59:25;;;;;;;5.70;2.47;;;;;;;5.10;67.62;103429.48;1690361;84;21471;-59
2022/12/04 18:01:52;;;;;;;6.10;2.15;;;;;;;5.12;67.63;103419.70;1675673;83;21029;-60
2022/12/04 18:04:19;;;;;;;4.25;1.67;;;;;;;5.14;67.73;103421.05;1686227;83;21129;-59
2022/12/04 18:06:45;;;;;;;4.15;1.42;;;;;;;5.16;67.62;103420.70;1700430;83;21058;-59
2022/12/04 18:09:15;;;;;;;2.12;1.55;;;;;;;5.09;67.61;103416.13;1693168;83;21011;-60
2022/12/04 18:11:44;;;;;;;4.50;1.72;;;;;;;5.14;67.43;103414.20;1692855;83;21030;-59
2022/12/04 18:14:17;;;;;;;9.05;2.58;;;;;;;5.11;67.49;103415.78;1700875;83;21034;-60
2022/12/04 18:16:49;;;;;;;2.60;1.70;;;;;;;5.13;67.40;103412.85;1696797;83;21058;-59
2022/12/04 18:19:15;;;;;;;3.17;1.40;;;;;;;5.16;67.16;103407.80;1726190;81;21490;-59
2022/12/04 18:21:42;;;;;;;4.40;1.90;;;;;;;5.16;66.98;103407.80;1759652;80;21053;-59
2022/12/04 18:24:09;;;;;;;3.83;1.45;;;;;;;5.13;66.82;103412.42;1763201;81;21503;-59
2022/12/04 18:26:40;;;;;;;2.95;1.52;;;;;;;5.19;66.44;103415.69;1752220;80;21031;-59
2022/12/04 18:29:07;;;;;;;4.67;1.60;;;;;;;5.14;66.60;103412.02;1746283;80;21025;-59
2022/12/04 18:31:34;;;;;;;3.15;1.62;;;;;;;5.17;66.77;103405.71;1742698;80;21043;-59
2022/12/04 18:34:01;;;;;;;8.33;1.85;;;;;;;5.21;66.78;103411.47;1753559;80;21569;-59
2022/12/04 18:36:29;;;;;;;5.72;1.92;;;;;;;5.24;66.58;103411.59;1758153;80;21003;-59
2022/12/04 18:38:59;;;;;;;5.05;1.92;;;;;;;5.23;66.57;103416.29;1773191;80;21116;-59
2022/12/04 18:41:26;;;;;;;5.65;2.00;;;;;;;5.20;66.65;103407.11;1753297;80;21106;-59
2022/12/04 18:43:53;;;;;;;3.50;1.47;;;;;;;5.18;66.50;103413.51;1758277;80;21014;-59
2022/12/04 18:46:20;;;;;;;6.55;1.72;;;;;;;5.20;66.52;103416.14;1749943;81;21014;-59
2022/12/04 18:48:47;;;;;;;2.95;1.50;;;;;;;5.21;66.18;103417.53;1760368;80;21161;-59
2022/12/04 18:51:25;;;;;;;7.65;3.65;;;;;;;5.20;66.12;103420.02;1755959;80;21554;-59
2022/12/04 18:53:57;;;;;;;3.50;1.80;;;;;;;5.18;66.49;103416.49;1749930;80;21089;-59
2022/12/04 18:56:23;;;;;;;5.67;2.52;;;;;;;5.23;66.36;103422.75;1686702;84;21057;-60
2022/12/04 18:58:57;;;;;;;9.45;2.47;;;;;;;5.25;66.27;103414.25;1678741;85;21011;-60
2022/12/04 19:01:24;;;;;;;5.00;2.27;;;;;;;5.24;66.24;103420.22;1658383;86;21522;-59
2022/12/04 19:03:58;;;;;;;6.62;2.08;;;;;;;5.23;66.22;103424.92;1656850;86;21147;-59
